createdAt,value
2023-02-12T00:03:00.278Z,28.48
2023-02-12T00:08:10.429Z,86.78
2023-02-12T00:13:16.780Z,58.38
2023-02-12T00:18:23.156Z,79.25
2023-02-12T00:23:29.695Z,67.97
2023-02-12T00:28:36.677Z,48.20
2023-02-12T00:33:43.413Z,50.25
2023-02-12T00:38:51.091Z,65.20
2023-02-12T00:43:56.862Z,77.60
2023-02-12T00:49:03.539Z,63.67
2023-02-12T00:54:09.302Z,61.97
2023-02-12T00:59:15.397Z,61.33
2023-02-12T01:09:27.076Z,71.82
2023-02-12T01:14:33.025Z,76.97
2023-02-12T01:19:40.015Z,62.47
2023-02-12T01:24:46.144Z,91.13
2023-02-12T01:29:51.783Z,70.75
2023-02-12T01:34:59.689Z,64.78
2023-02-12T01:40:07.673Z,53.25
2023-02-12T01:45:20.340Z,59.92
2023-02-12T01:50:27.734Z,47.13
2023-02-12T01:55:34.385Z,65.88
2023-02-12T02:00:43.047Z,68.63
2023-02-12T02:06:03.143Z,53.78
2023-02-12T02:11:29.358Z,56.50
2023-02-12T02:16:39.824Z,58.55
2023-02-12T02:22:17.932Z,40.55
2023-02-12T02:27:34.438Z,64.35
2023-02-12T02:39:49.536Z,59.33
2023-02-12T02:45:22.509Z,71.63
2023-02-12T02:50:38.101Z,72.05
2023-02-12T02:56:04.403Z,69.20
2023-02-12T03:01:32.940Z,68.70
2023-02-12T03:06:50.586Z,68.03
2023-02-12T03:20:01.951Z,65.32
2023-02-12T03:25:41.314Z,67.60
2023-02-12T03:31:03.573Z,65.05
2023-02-12T03:41:46.141Z,68.70
2023-02-12T03:47:17.857Z,59.50
2023-02-12T03:52:23.926Z,60.72
2023-02-12T04:02:38.923Z,56.90
2023-02-12T04:07:44.051Z,56.05
2023-02-12T04:13:06.681Z,57.87
2023-02-12T04:18:33.449Z,63.45
2023-02-12T04:29:11.881Z,69.00
2023-02-12T04:35:01.061Z,68.63
2023-02-12T04:40:10.037Z,65.00
2023-02-12T04:45:19.659Z,74.32
2023-02-12T04:50:27.026Z,71.82
2023-02-12T04:55:32.360Z,74.65
2023-02-12T05:00:43.244Z,73.67
2023-02-12T05:06:07.738Z,66.38
2023-02-12T05:11:16.521Z,72.78
2023-02-12T05:16:26.254Z,68.33
2023-02-12T05:21:31.483Z,78.68
2023-02-12T05:26:38.366Z,72.67
2023-02-12T05:31:44.631Z,55.83
2023-02-12T05:36:50.220Z,71.25
2023-02-12T05:41:55.546Z,66.72
2023-02-12T05:47:00.614Z,69.33
2023-02-12T05:52:06.283Z,57.97
2023-02-12T05:57:11.646Z,62.97
2023-02-12T06:02:18.148Z,58.30
2023-02-12T06:07:24.589Z,58.30
2023-02-12T06:12:53.101Z,58.05
2023-02-12T06:17:58.568Z,56.53
2023-02-12T06:23:07.088Z,59.30
2023-02-12T06:35:39.672Z,62.88
2023-02-12T06:40:48.580Z,63.97
2023-02-12T06:45:54.576Z,58.92
2023-02-12T06:51:33.997Z,72.00
2023-02-12T07:03:22.634Z,72.20
2023-02-12T07:09:39.630Z,77.95
2023-02-12T07:14:50.955Z,68.53
2023-02-12T07:19:59.068Z,74.70
2023-02-12T07:25:04.174Z,81.57
2023-02-12T07:30:10.177Z,79.93
2023-02-12T07:35:15.544Z,80.90
2023-02-12T07:40:21.113Z,64.03
2023-02-12T07:45:32.704Z,75.32
2023-02-12T07:50:40.108Z,74.35
2023-02-12T08:02:56.070Z,68.88
2023-02-12T08:13:09.640Z,66.00
2023-02-12T08:18:15.130Z,75.22
2023-02-12T08:23:21.486Z,79.25
2023-02-12T08:28:51.394Z,72.93
2023-02-12T08:33:57.593Z,76.47
2023-02-12T08:39:06.042Z,74.88
2023-02-12T08:44:14.439Z,81.20
2023-02-12T08:49:26.077Z,81.15
2023-02-12T08:54:33.791Z,62.40
2023-02-12T08:59:39.186Z,71.40
2023-02-12T09:04:44.650Z,61.15
2023-02-12T09:09:50.145Z,70.07
2023-02-12T09:14:55.639Z,67.82
2023-02-12T09:20:02.828Z,72.15
2023-02-12T09:25:09.131Z,75.05
2023-02-12T09:30:15.801Z,76.85
2023-02-12T09:35:27.325Z,70.93
2023-02-12T09:40:42.272Z,89.53
2023-02-12T09:46:16.996Z,57.47
2023-02-12T09:51:23.149Z,79.60
2023-02-12T09:57:08.648Z,76.07
2023-02-12T10:02:18.569Z,65.00
2023-02-12T10:07:33.549Z,72.38
2023-02-12T10:13:01.809Z,71.88
2023-02-12T10:18:25.810Z,72.30
2023-02-12T10:23:48.422Z,81.30
2023-02-12T10:28:54.792Z,75.20
2023-02-12T10:34:04.919Z,72.80
2023-02-12T10:39:16.004Z,80.55
2023-02-12T10:44:23.217Z,72.30
2023-02-12T10:49:28.738Z,79.47
2023-02-12T10:54:45.972Z,80.97
2023-02-12T10:59:54.701Z,83.13
2023-02-12T11:05:02.776Z,91.80
2023-02-12T11:10:27.682Z,86.60
2023-02-12T11:15:48.455Z,100.38
2023-02-12T11:21:00.561Z,88.88
2023-02-12T11:26:36.967Z,99.55
2023-02-12T11:31:43.068Z,94.22
2023-02-12T11:36:54.729Z,95.03
2023-02-12T11:42:06.216Z,98.00
2023-02-12T11:47:19.076Z,103.65
2023-02-12T11:52:28.738Z,145.32
2023-02-12T11:57:50.232Z,104.70
2023-02-12T12:03:05.273Z,101.68
2023-02-12T12:08:38.553Z,100.30
2023-02-12T12:14:15.241Z,98.35
2023-02-12T12:20:21.381Z,101.38
2023-02-12T12:25:55.095Z,116.28
2023-02-12T12:31:29.534Z,110.50
2023-02-12T12:37:29.407Z,107.75
2023-02-12T12:43:03.716Z,112.80
2023-02-12T12:49:00.491Z,103.82
2023-02-12T12:54:22.962Z,105.22
2023-02-12T12:59:53.965Z,104.13
2023-02-12T13:05:19.530Z,94.85
2023-02-12T13:17:19.130Z,104.20
2023-02-12T13:22:34.095Z,102.32
2023-02-12T13:33:24.132Z,119.37
2023-02-12T13:39:41.835Z,88.45
2023-02-12T13:45:36.613Z,102.90
2023-02-12T13:51:19.891Z,114.25
2023-02-12T14:03:19.379Z,110.85
2023-02-12T14:08:59.911Z,115.35
2023-02-12T14:14:51.518Z,121.68
2023-02-12T14:27:52.461Z,109.60
2023-02-12T14:33:22.944Z,103.05
2023-02-12T14:38:46.874Z,106.85
2023-02-12T14:45:05.561Z,109.68
2023-02-12T14:51:29.406Z,88.50
2023-02-12T14:56:46.043Z,95.05
2023-02-12T15:07:52.285Z,100.07
2023-02-12T15:13:39.073Z,97.72
2023-02-12T15:24:29.688Z,100.40
2023-02-12T15:29:46.788Z,108.75
2023-02-12T15:34:57.565Z,102.40
2023-02-12T15:40:11.335Z,94.00
2023-02-12T15:45:53.842Z,108.05
2023-02-12T15:51:30.174Z,87.32
2023-02-12T15:56:37.773Z,88.40
2023-02-12T16:01:56.667Z,94.10
2023-02-12T16:07:03.863Z,102.13
2023-02-12T16:12:15.440Z,95.72
2023-02-12T16:17:36.886Z,97.50
2023-02-12T16:22:45.270Z,99.10
2023-02-12T16:28:19.918Z,94.25
2023-02-12T16:33:39.330Z,93.20
2023-02-12T16:38:53.893Z,85.18
2023-02-12T16:44:08.696Z,81.63
2023-02-12T16:49:22.672Z,85.78
2023-02-12T16:54:38.380Z,89.18
2023-02-12T16:59:47.005Z,89.32
2023-02-12T17:04:55.060Z,84.15
2023-02-12T17:10:02.936Z,86.60
2023-02-12T17:15:09.324Z,81.10
2023-02-12T17:20:17.355Z,81.47
2023-02-12T17:25:23.532Z,81.70
2023-02-12T17:35:36.611Z,76.72
2023-02-12T17:40:42.574Z,78.43
2023-02-12T17:45:48.824Z,73.28
2023-02-12T17:51:01.964Z,67.18
2023-02-12T17:56:11.751Z,71.40
2023-02-12T18:01:20.914Z,74.72
2023-02-12T18:06:33.135Z,60.42
2023-02-12T18:11:43.972Z,69.60
2023-02-12T18:16:50.198Z,72.80
2023-02-12T18:21:56.929Z,55.40
2023-02-12T18:27:03.859Z,66.70
2023-02-12T18:32:16.008Z,57.35
2023-02-12T18:37:22.777Z,62.72
2023-02-12T18:42:30.080Z,59.80
2023-02-12T18:47:36.284Z,70.03
2023-02-12T18:52:58.602Z,58.38
2023-02-12T18:58:04.264Z,61.65
2023-02-12T19:03:09.894Z,54.42
2023-02-12T19:13:21.983Z,52.13
2023-02-12T19:18:27.943Z,54.22
2023-02-12T19:28:42.735Z,50.63
2023-02-12T19:33:50.051Z,71.13
2023-02-12T19:38:56.219Z,59.13
2023-02-12T19:44:04.351Z,42.45
2023-02-12T19:49:14.402Z,45.50
2023-02-12T19:54:21.908Z,49.75
2023-02-12T19:59:28.665Z,45.83
2023-02-12T20:04:35.633Z,47.40
2023-02-12T20:09:41.875Z,54.45
2023-02-12T20:15:04.371Z,46.20
2023-02-12T20:20:11.961Z,55.92
2023-02-12T20:25:17.726Z,52.15
2023-02-12T20:30:24.136Z,47.10
2023-02-12T20:35:31.165Z,46.78
2023-02-12T20:40:36.876Z,46.58
2023-02-12T20:45:43.045Z,49.47
2023-02-12T20:50:49.079Z,49.42
2023-02-12T21:01:22.944Z,43.45
2023-02-12T21:06:28.947Z,48.80
2023-02-12T21:16:48.931Z,41.42
2023-02-12T21:21:55.333Z,42.45
2023-02-12T21:27:01.380Z,43.50
2023-02-12T21:37:12.484Z,55.00
2023-02-12T21:42:18.394Z,47.03
2023-02-12T21:47:24.324Z,42.53
2023-02-12T21:52:30.533Z,52.88
2023-02-12T21:57:36.263Z,55.67
2023-02-12T22:02:42.313Z,50.92
2023-02-12T22:07:52.554Z,44.85
2023-02-12T22:12:59.059Z,44.88
2023-02-12T22:18:05.320Z,44.25
2023-02-12T22:28:16.837Z,48.47
2023-02-12T22:33:24.692Z,47.42
2023-02-12T22:38:30.951Z,42.20
2023-02-12T22:43:39.276Z,44.47
2023-02-12T22:48:45.798Z,43.97
2023-02-12T22:53:52.215Z,40.75
2023-02-12T22:59:00.324Z,44.47
2023-02-12T23:04:06.519Z,41.42
2023-02-12T23:09:15.981Z,44.25
2023-02-12T23:14:22.771Z,45.28
2023-02-12T23:19:28.491Z,48.88
2023-02-12T23:24:34.728Z,49.78
2023-02-12T23:29:41.824Z,52.13
2023-02-12T23:34:48.206Z,51.17
2023-02-12T23:40:11.481Z,43.45
2023-02-12T23:45:33.295Z,47.97
2023-02-12T23:50:39.853Z,47.78
2023-02-12T23:55:46.036Z,50.80
